sensor_id;sensor_type;location;lat;lon;timestamp;temperature;humidity
7814;DHT22;3952;48.364;16.022;2024-01-11T00:02:22;-4.20;99.90
7814;DHT22;3952;48.364;16.022;2024-01-11T00:04:50;-4.30;99.90
7814;DHT22;3952;48.364;16.022;2024-01-11T00:07:19;-4.30;99.90
7814;DHT22;3952;48.364;16.022;2024-01-11T00:09:46;-4.30;99.90
7814;DHT22;3952;48.364;16.022;2024-01-11T00:12:13;-4.30;99.90
7814;DHT22;3952;48.364;16.022;2024-01-11T00:14:41;-4.40;99.90
7814;DHT22;3952;48.364;16.022;2024-01-11T00:17:08;-4.40;99.90
7814;DHT22;3952;48.364;16.022;2024-01-11T00:19:36;-4.50;99.90
7814;DHT22;3952;48.364;16.022;2024-01-11T00:22:03;-4.50;99.90
7814;DHT22;3952;48.364;16.022;2024-01-11T00:24:33;-4.70;99.90
7814;DHT22;3952;48.364;16.022;2024-01-11T00:27:00;-4.80;99.90
7814;DHT22;3952;48.364;16.022;2024-01-11T00:29:27;-4.90;99.90
7814;DHT22;3952;48.364;16.022;2024-01-11T00:31:55;-5.00;99.90
7814;DHT22;3952;48.364;16.022;2024-01-11T00:34:24;-5.00;99.90
7814;DHT22;3952;48.364;16.022;2024-01-11T00:36:51;-5.10;99.90
7814;DHT22;3952;48.364;16.022;2024-01-11T00:39:18;-5.10;99.90
7814;DHT22;3952;48.364;16.022;2024-01-11T00:41:47;-5.10;99.90
7814;DHT22;3952;48.364;16.022;2024-01-11T00:44:14;-5.20;99.90
7814;DHT22;3952;48.364;16.022;2024-01-11T00:46:42;-5.30;99.90
7814;DHT22;3952;48.364;16.022;2024-01-11T00:49:09;-4.30;99.90
7814;DHT22;3952;48.364;16.022;2024-01-11T00:51:36;-5.30;99.90
7814;DHT22;3952;48.364;16.022;2024-01-11T00:54:04;-5.30;99.90
7814;DHT22;3952;48.364;16.022;2024-01-11T00:56:31;-5.60;99.90
7814;DHT22;3952;48.364;16.022;2024-01-11T00:59:00;-5.50;99.90
7814;DHT22;3952;48.364;16.022;2024-01-11T01:01:27;-5.50;99.90
7814;DHT22;3952;48.364;16.022;2024-01-11T01:03:54;-5.60;99.90
7814;DHT22;3952;48.364;16.022;2024-01-11T01:06:25;-5.60;99.90
7814;DHT22;3952;48.364;16.022;2024-01-11T01:08:55;-5.80;99.90
7814;DHT22;3952;48.364;16.022;2024-01-11T01:11:22;-5.80;99.90
7814;DHT22;3952;48.364;16.022;2024-01-11T01:13:49;-5.80;99.90
7814;DHT22;3952;48.364;16.022;2024-01-11T01:16:18;-5.90;99.90
7814;DHT22;3952;48.364;16.022;2024-01-11T01:18:45;-5.80;99.90
7814;DHT22;3952;48.364;16.022;2024-01-11T01:21:13;-5.80;99.90
7814;DHT22;3952;48.364;16.022;2024-01-11T01:23:40;-5.80;99.90
7814;DHT22;3952;48.364;16.022;2024-01-11T01:26:07;-5.80;99.90
7814;DHT22;3952;48.364;16.022;2024-01-11T01:28:35;-6.00;99.90
7814;DHT22;3952;48.364;16.022;2024-01-11T01:31:02;-5.90;99.90
7814;DHT22;3952;48.364;16.022;2024-01-11T01:33:31;-5.90;99.90
7814;DHT22;3952;48.364;16.022;2024-01-11T01:35:58;-5.90;99.90
7814;DHT22;3952;48.364;16.022;2024-01-11T01:38:26;-5.90;99.90
7814;DHT22;3952;48.364;16.022;2024-01-11T01:40:53;-6.00;99.90
7814;DHT22;3952;48.364;16.022;2024-01-11T01:43:20;-6.00;99.90
7814;DHT22;3952;48.364;16.022;2024-01-11T01:45:48;-6.00;99.90
7814;DHT22;3952;48.364;16.022;2024-01-11T01:48:15;-6.00;99.90
7814;DHT22;3952;48.364;16.022;2024-01-11T01:50:44;-6.00;99.90
7814;DHT22;3952;48.364;16.022;2024-01-11T01:53:17;-6.00;99.90
7814;DHT22;3952;48.364;16.022;2024-01-11T01:55:44;-6.00;99.90
7814;DHT22;3952;48.364;16.022;2024-01-11T01:58:12;-6.10;99.90
7814;DHT22;3952;48.364;16.022;2024-01-11T02:00:40;-6.10;99.90
7814;DHT22;3952;48.364;16.022;2024-01-11T02:03:08;-6.20;99.90
7814;DHT22;3952;48.364;16.022;2024-01-11T02:05:36;-6.20;99.90
7814;DHT22;3952;48.364;16.022;2024-01-11T02:08:07;-6.20;99.90
7814;DHT22;3952;48.364;16.022;2024-01-11T02:10:35;-6.30;99.90
7814;DHT22;3952;48.364;16.022;2024-01-11T02:13:04;-6.30;99.90
7814;DHT22;3952;48.364;16.022;2024-01-11T02:15:32;-6.40;99.90
7814;DHT22;3952;48.364;16.022;2024-01-11T02:17:59;-6.40;99.90
7814;DHT22;3952;48.364;16.022;2024-01-11T02:20:27;-6.40;99.90
7814;DHT22;3952;48.364;16.022;2024-01-11T02:22:58;-6.40;99.90
7814;DHT22;3952;48.364;16.022;2024-01-11T02:25:29;-6.40;99.90
7814;DHT22;3952;48.364;16.022;2024-01-11T02:27:57;-6.50;99.90
7814;DHT22;3952;48.364;16.022;2024-01-11T02:30:24;-6.50;99.90
7814;DHT22;3952;48.364;16.022;2024-01-11T02:32:52;-6.40;99.90
7814;DHT22;3952;48.364;16.022;2024-01-11T02:35:19;-6.40;99.90
7814;DHT22;3952;48.364;16.022;2024-01-11T02:37:47;-6.50;99.90
7814;DHT22;3952;48.364;16.022;2024-01-11T02:40:14;-6.60;99.90
7814;DHT22;3952;48.364;16.022;2024-01-11T02:42:43;-6.60;99.90
7814;DHT22;3952;48.364;16.022;2024-01-11T02:45:11;-6.60;99.90
7814;DHT22;3952;48.364;16.022;2024-01-11T02:47:39;-6.60;99.90
7814;DHT22;3952;48.364;16.022;2024-01-11T02:50:07;-6.60;99.90
7814;DHT22;3952;48.364;16.022;2024-01-11T02:52:37;-6.60;99.90
7814;DHT22;3952;48.364;16.022;2024-01-11T02:55:05;-6.60;99.90
7814;DHT22;3952;48.364;16.022;2024-01-11T02:57:32;-6.60;99.90
7814;DHT22;3952;48.364;16.022;2024-01-11T03:00:01;-6.60;99.90
7814;DHT22;3952;48.364;16.022;2024-01-11T03:02:29;-6.60;99.90
7814;DHT22;3952;48.364;16.022;2024-01-11T03:04:56;-6.60;99.90
7814;DHT22;3952;48.364;16.022;2024-01-11T03:07:23;-6.60;99.90
7814;DHT22;3952;48.364;16.022;2024-01-11T03:09:51;-6.70;99.90
7814;DHT22;3952;48.364;16.022;2024-01-11T03:12:19;-6.70;99.90
7814;DHT22;3952;48.364;16.022;2024-01-11T03:14:46;-6.80;99.90
7814;DHT22;3952;48.364;16.022;2024-01-11T03:17:15;-6.70;99.90
7814;DHT22;3952;48.364;16.022;2024-01-11T03:19:42;-6.70;99.90
7814;DHT22;3952;48.364;16.022;2024-01-11T03:22:12;-6.70;99.90
7814;DHT22;3952;48.364;16.022;2024-01-11T03:24:39;-6.80;99.90
7814;DHT22;3952;48.364;16.022;2024-01-11T03:27:07;-6.80;99.90
7814;DHT22;3952;48.364;16.022;2024-01-11T03:29:34;-6.80;99.90
7814;DHT22;3952;48.364;16.022;2024-01-11T03:32:01;-6.80;99.90
7814;DHT22;3952;48.364;16.022;2024-01-11T03:34:30;-6.80;99.90
7814;DHT22;3952;48.364;16.022;2024-01-11T03:36:58;-6.80;99.90
7814;DHT22;3952;48.364;16.022;2024-01-11T03:39:25;-6.90;99.90
7814;DHT22;3952;48.364;16.022;2024-01-11T03:41:52;-6.90;99.90
7814;DHT22;3952;48.364;16.022;2024-01-11T03:44:20;-6.90;99.90
7814;DHT22;3952;48.364;16.022;2024-01-11T03:46:48;-6.90;99.90
7814;DHT22;3952;48.364;16.022;2024-01-11T03:49:15;-7.00;99.90
7814;DHT22;3952;48.364;16.022;2024-01-11T03:51:44;-7.00;99.90
7814;DHT22;3952;48.364;16.022;2024-01-11T03:54:11;-7.00;99.90
7814;DHT22;3952;48.364;16.022;2024-01-11T03:56:39;-7.40;99.90
7814;DHT22;3952;48.364;16.022;2024-01-11T03:59:06;-7.10;99.90
7814;DHT22;3952;48.364;16.022;2024-01-11T04:01:39;-7.10;99.90
7814;DHT22;3952;48.364;16.022;2024-01-11T04:04:07;-7.10;99.90
7814;DHT22;3952;48.364;16.022;2024-01-11T04:06:34;-7.10;99.90
7814;DHT22;3952;48.364;16.022;2024-01-11T04:09:03;-7.20;99.90
7814;DHT22;3952;48.364;16.022;2024-01-11T04:11:30;-7.20;99.90
7814;DHT22;3952;48.364;16.022;2024-01-11T04:13:58;-7.20;99.90
7814;DHT22;3952;48.364;16.022;2024-01-11T04:16:25;-7.20;99.90
7814;DHT22;3952;48.364;16.022;2024-01-11T04:18:52;-7.20;99.90
7814;DHT22;3952;48.364;16.022;2024-01-11T04:21:21;-7.20;99.90
7814;DHT22;3952;48.364;16.022;2024-01-11T04:23:48;-7.20;99.90
7814;DHT22;3952;48.364;16.022;2024-01-11T04:26:18;-7.20;99.90
7814;DHT22;3952;48.364;16.022;2024-01-11T04:28:45;-7.20;99.90
7814;DHT22;3952;48.364;16.022;2024-01-11T04:31:13;-7.20;99.90
7814;DHT22;3952;48.364;16.022;2024-01-11T04:33:42;-7.20;99.90
7814;DHT22;3952;48.364;16.022;2024-01-11T04:36:10;-7.20;99.90
7814;DHT22;3952;48.364;16.022;2024-01-11T04:38:38;-7.30;99.90
7814;DHT22;3952;48.364;16.022;2024-01-11T04:41:08;-7.30;99.90
7814;DHT22;3952;48.364;16.022;2024-01-11T04:43:38;-7.30;99.90
7814;DHT22;3952;48.364;16.022;2024-01-11T04:46:13;-7.30;99.90
7814;DHT22;3952;48.364;16.022;2024-01-11T04:48:41;-7.30;99.90
7814;DHT22;3952;48.364;16.022;2024-01-11T04:51:08;-7.30;99.90
7814;DHT22;3952;48.364;16.022;2024-01-11T04:53:37;-7.30;99.90
7814;DHT22;3952;48.364;16.022;2024-01-11T04:56:07;-7.30;99.90
7814;DHT22;3952;48.364;16.022;2024-01-11T04:58:34;-7.30;99.90
7814;DHT22;3952;48.364;16.022;2024-01-11T05:01:04;-7.30;99.90
7814;DHT22;3952;48.364;16.022;2024-01-11T05:03:32;-7.30;99.90
7814;DHT22;3952;48.364;16.022;2024-01-11T05:06:00;-7.30;99.90
7814;DHT22;3952;48.364;16.022;2024-01-11T05:08:27;-7.30;99.90
7814;DHT22;3952;48.364;16.022;2024-01-11T05:10:55;-7.30;99.90
7814;DHT22;3952;48.364;16.022;2024-01-11T05:13:22;-7.30;99.90
7814;DHT22;3952;48.364;16.022;2024-01-11T05:15:49;-7.30;99.90
7814;DHT22;3952;48.364;16.022;2024-01-11T05:18:18;-7.40;99.90
7814;DHT22;3952;48.364;16.022;2024-01-11T05:20:45;-7.40;99.90
7814;DHT22;3952;48.364;16.022;2024-01-11T05:23:12;-6.50;99.90
7814;DHT22;3952;48.364;16.022;2024-01-11T05:25:40;-7.30;99.90
7814;DHT22;3952;48.364;16.022;2024-01-11T05:28:07;-7.40;99.90
7814;DHT22;3952;48.364;16.022;2024-01-11T05:30:34;-7.40;99.90
7814;DHT22;3952;48.364;16.022;2024-01-11T05:33:02;-7.50;99.90
7814;DHT22;3952;48.364;16.022;2024-01-11T05:35:31;-7.50;99.90
7814;DHT22;3952;48.364;16.022;2024-01-11T05:37:58;-7.50;99.90
7814;DHT22;3952;48.364;16.022;2024-01-11T05:40:26;-7.50;99.90
7814;DHT22;3952;48.364;16.022;2024-01-11T05:42:53;-7.50;99.90
7814;DHT22;3952;48.364;16.022;2024-01-11T05:45:20;-7.50;99.90
7814;DHT22;3952;48.364;16.022;2024-01-11T05:47:48;-7.50;99.90
7814;DHT22;3952;48.364;16.022;2024-01-11T05:50:15;-7.50;99.90
7814;DHT22;3952;48.364;16.022;2024-01-11T05:52:44;-7.60;99.90
7814;DHT22;3952;48.364;16.022;2024-01-11T05:55:11;-7.60;99.90
7814;DHT22;3952;48.364;16.022;2024-01-11T05:57:39;-7.60;99.90
7814;DHT22;3952;48.364;16.022;2024-01-11T06:00:06;-7.60;99.90
7814;DHT22;3952;48.364;16.022;2024-01-11T06:02:35;-7.60;99.90
7814;DHT22;3952;48.364;16.022;2024-01-11T06:05:03;-7.60;99.90
7814;DHT22;3952;48.364;16.022;2024-01-11T06:07:31;-7.60;99.90
7814;DHT22;3952;48.364;16.022;2024-01-11T06:10:00;-7.60;99.90
7814;DHT22;3952;48.364;16.022;2024-01-11T06:12:28;-7.70;99.90
7814;DHT22;3952;48.364;16.022;2024-01-11T06:14:56;-7.70;99.90
7814;DHT22;3952;48.364;16.022;2024-01-11T06:17:24;-7.70;99.90
7814;DHT22;3952;48.364;16.022;2024-01-11T06:19:52;-8.70;99.90
7814;DHT22;3952;48.364;16.022;2024-01-11T06:22:19;-7.80;99.90
7814;DHT22;3952;48.364;16.022;2024-01-11T06:24:46;-7.80;99.90
7814;DHT22;3952;48.364;16.022;2024-01-11T06:27:16;-7.80;99.90
7814;DHT22;3952;48.364;16.022;2024-01-11T06:29:43;-7.80;99.90
7814;DHT22;3952;48.364;16.022;2024-01-11T06:32:10;-7.70;99.90
7814;DHT22;3952;48.364;16.022;2024-01-11T06:34:38;-7.70;99.90
7814;DHT22;3952;48.364;16.022;2024-01-11T06:37:07;-7.70;99.90
7814;DHT22;3952;48.364;16.022;2024-01-11T06:39:34;-7.70;99.90
7814;DHT22;3952;48.364;16.022;2024-01-11T06:42:02;-7.60;99.90
7814;DHT22;3952;48.364;16.022;2024-01-11T06:44:31;-7.70;99.90
7814;DHT22;3952;48.364;16.022;2024-01-11T06:46:58;-7.70;99.90
7814;DHT22;3952;48.364;16.022;2024-01-11T06:49:27;-7.70;99.90
7814;DHT22;3952;48.364;16.022;2024-01-11T06:51:54;-7.70;99.90
7814;DHT22;3952;48.364;16.022;2024-01-11T06:54:22;-7.80;99.90
7814;DHT22;3952;48.364;16.022;2024-01-11T06:56:49;-7.80;99.90
7814;DHT22;3952;48.364;16.022;2024-01-11T06:59:16;-7.80;99.90
7814;DHT22;3952;48.364;16.022;2024-01-11T07:01:46;-7.70;99.90
7814;DHT22;3952;48.364;16.022;2024-01-11T07:04:13;-7.70;99.90
7814;DHT22;3952;48.364;16.022;2024-01-11T07:06:41;-7.60;99.90
7814;DHT22;3952;48.364;16.022;2024-01-11T07:09:08;-7.60;99.90
7814;DHT22;3952;48.364;16.022;2024-01-11T07:11:36;-7.60;99.90
7814;DHT22;3952;48.364;16.022;2024-01-11T07:14:04;-7.60;99.90
7814;DHT22;3952;48.364;16.022;2024-01-11T07:16:31;-7.50;99.90
7814;DHT22;3952;48.364;16.022;2024-01-11T07:19:00;-7.60;99.90
7814;DHT22;3952;48.364;16.022;2024-01-11T07:21:27;-7.60;99.90
7814;DHT22;3952;48.364;16.022;2024-01-11T07:23:57;-8.10;99.90
7814;DHT22;3952;48.364;16.022;2024-01-11T07:26:24;-7.60;99.90
7814;DHT22;3952;48.364;16.022;2024-01-11T07:28:52;-7.60;99.90
7814;DHT22;3952;48.364;16.022;2024-01-11T07:31:20;-7.40;99.90
7814;DHT22;3952;48.364;16.022;2024-01-11T07:33:48;-7.20;99.90
7814;DHT22;3952;48.364;16.022;2024-01-11T07:36:17;-7.00;99.90
7814;DHT22;3952;48.364;16.022;2024-01-11T07:38:45;-6.80;99.90
7814;DHT22;3952;48.364;16.022;2024-01-11T07:41:12;-6.60;99.90
7814;DHT22;3952;48.364;16.022;2024-01-11T07:43:40;-6.50;99.90
7814;DHT22;3952;48.364;16.022;2024-01-11T07:46:07;-6.40;99.90
7814;DHT22;3952;48.364;16.022;2024-01-11T07:48:35;-6.20;99.90
7814;DHT22;3952;48.364;16.022;2024-01-11T07:51:03;-6.00;99.90
7814;DHT22;3952;48.364;16.022;2024-01-11T07:53:32;-5.40;99.90
7814;DHT22;3952;48.364;16.022;2024-01-11T07:55:59;-3.10;99.90
7814;DHT22;3952;48.364;16.022;2024-01-11T07:58:26;-3.70;99.90
7814;DHT22;3952;48.364;16.022;2024-01-11T08:00:54;-3.00;99.90
7814;DHT22;3952;48.364;16.022;2024-01-11T08:03:21;-2.20;99.90
7814;DHT22;3952;48.364;16.022;2024-01-11T08:05:48;-1.50;99.90
7814;DHT22;3952;48.364;16.022;2024-01-11T08:08:16;-0.80;99.90
7814;DHT22;3952;48.364;16.022;2024-01-11T08:10:45;-0.30;99.90
7814;DHT22;3952;48.364;16.022;2024-01-11T08:13:12;0.10;99.90
7814;DHT22;3952;48.364;16.022;2024-01-11T08:15:40;0.50;99.90
7814;DHT22;3952;48.364;16.022;2024-01-11T08:18:07;0.80;99.90
7814;DHT22;3952;48.364;16.022;2024-01-11T08:20:34;1.20;99.90
7814;DHT22;3952;48.364;16.022;2024-01-11T08:23:02;1.50;99.90
7814;DHT22;3952;48.364;16.022;2024-01-11T08:25:29;1.80;99.90
7814;DHT22;3952;48.364;16.022;2024-01-11T08:27:58;2.20;99.90
7814;DHT22;3952;48.364;16.022;2024-01-11T08:30:26;2.50;99.90
7814;DHT22;3952;48.364;16.022;2024-01-11T08:32:53;2.80;99.90
7814;DHT22;3952;48.364;16.022;2024-01-11T08:35:21;3.10;99.90
7814;DHT22;3952;48.364;16.022;2024-01-11T08:37:49;3.40;99.90
7814;DHT22;3952;48.364;16.022;2024-01-11T08:40:16;3.60;99.90
7814;DHT22;3952;48.364;16.022;2024-01-11T08:42:44;3.80;99.90
7814;DHT22;3952;48.364;16.022;2024-01-11T08:45:13;3.90;99.90
7814;DHT22;3952;48.364;16.022;2024-01-11T08:47:44;4.20;99.90
7814;DHT22;3952;48.364;16.022;2024-01-11T08:50:13;4.40;99.90
7814;DHT22;3952;48.364;16.022;2024-01-11T08:52:41;4.30;99.90
7814;DHT22;3952;48.364;16.022;2024-01-11T08:55:09;4.40;99.90
7814;DHT22;3952;48.364;16.022;2024-01-11T08:57:38;4.60;99.90
7814;DHT22;3952;48.364;16.022;2024-01-11T09:00:06;4.70;99.90
7814;DHT22;3952;48.364;16.022;2024-01-11T09:02:35;4.80;99.90
7814;DHT22;3952;48.364;16.022;2024-01-11T09:05:03;4.80;99.90
7814;DHT22;3952;48.364;16.022;2024-01-11T09:07:33;4.70;99.90
7814;DHT22;3952;48.364;16.022;2024-01-11T09:10:00;4.70;99.90
7814;DHT22;3952;48.364;16.022;2024-01-11T09:12:29;4.70;99.90
7814;DHT22;3952;48.364;16.022;2024-01-11T09:14:56;4.70;99.90
7814;DHT22;3952;48.364;16.022;2024-01-11T09:17:23;5.60;99.90
7814;DHT22;3952;48.364;16.022;2024-01-11T09:19:52;5.00;99.90
7814;DHT22;3952;48.364;16.022;2024-01-11T09:22:20;4.90;99.90
7814;DHT22;3952;48.364;16.022;2024-01-11T09:24:47;5.00;99.90
7814;DHT22;3952;48.364;16.022;2024-01-11T09:27:14;4.80;99.90
7814;DHT22;3952;48.364;16.022;2024-01-11T09:29:45;4.80;99.90
7814;DHT22;3952;48.364;16.022;2024-01-11T09:32:13;4.90;99.90
7814;DHT22;3952;48.364;16.022;2024-01-11T09:34:40;4.70;99.90
7814;DHT22;3952;48.364;16.022;2024-01-11T09:37:09;4.70;99.90
7814;DHT22;3952;48.364;16.022;2024-01-11T09:39:36;4.90;99.90
7814;DHT22;3952;48.364;16.022;2024-01-11T09:42:08;5.10;99.90
7814;DHT22;3952;48.364;16.022;2024-01-11T09:44:36;5.20;99.90
7814;DHT22;3952;48.364;16.022;2024-01-11T09:47:06;4.40;99.60
7814;DHT22;3952;48.364;16.022;2024-01-11T09:49:36;4.90;99.90
7814;DHT22;3952;48.364;16.022;2024-01-11T09:52:05;4.90;99.90
7814;DHT22;3952;48.364;16.022;2024-01-11T09:54:37;4.90;99.80
7814;DHT22;3952;48.364;16.022;2024-01-11T09:57:07;4.90;99.90
7814;DHT22;3952;48.364;16.022;2024-01-11T09:59:36;4.90;99.90
7814;DHT22;3952;48.364;16.022;2024-01-11T10:02:04;5.10;99.90
7814;DHT22;3952;48.364;16.022;2024-01-11T10:04:34;5.00;99.40
7814;DHT22;3952;48.364;16.022;2024-01-11T10:07:04;4.70;99.50
7814;DHT22;3952;48.364;16.022;2024-01-11T10:09:33;4.60;99.90
7814;DHT22;3952;48.364;16.022;2024-01-11T10:12:02;4.70;99.90
7814;DHT22;3952;48.364;16.022;2024-01-11T10:14:30;4.90;99.90
7814;DHT22;3952;48.364;16.022;2024-01-11T10:16:58;5.10;99.90
7814;DHT22;3952;48.364;16.022;2024-01-11T10:19:26;4.90;99.20
7814;DHT22;3952;48.364;16.022;2024-01-11T10:21:53;5.20;99.40
7814;DHT22;3952;48.364;16.022;2024-01-11T10:24:21;4.80;99.40
7814;DHT22;3952;48.364;16.022;2024-01-11T10:26:52;4.70;99.90
7814;DHT22;3952;48.364;16.022;2024-01-11T10:29:28;4.70;99.90
7814;DHT22;3952;48.364;16.022;2024-01-11T10:31:57;4.60;99.90
7814;DHT22;3952;48.364;16.022;2024-01-11T10:34:24;4.50;99.90
7814;DHT22;3952;48.364;16.022;2024-01-11T10:36:52;4.30;99.70
7814;DHT22;3952;48.364;16.022;2024-01-11T10:39:24;4.00;99.90
7814;DHT22;3952;48.364;16.022;2024-01-11T10:41:58;3.70;99.90
7814;DHT22;3952;48.364;16.022;2024-01-11T10:44:34;3.30;99.90
7814;DHT22;3952;48.364;16.022;2024-01-11T10:47:03;3.10;99.90
7814;DHT22;3952;48.364;16.022;2024-01-11T10:49:33;2.90;99.90
7814;DHT22;3952;48.364;16.022;2024-01-11T10:52:03;2.80;99.90
7814;DHT22;3952;48.364;16.022;2024-01-11T10:54:31;2.60;99.90
7814;DHT22;3952;48.364;16.022;2024-01-11T10:57:00;2.40;99.90
7814;DHT22;3952;48.364;16.022;2024-01-11T10:59:33;2.40;99.90
7814;DHT22;3952;48.364;16.022;2024-01-11T11:02:04;2.50;99.90
7814;DHT22;3952;48.364;16.022;2024-01-11T11:04:38;2.40;99.90
7814;DHT22;3952;48.364;16.022;2024-01-11T11:07:08;2.20;99.90
7814;DHT22;3952;48.364;16.022;2024-01-11T11:09:35;2.20;99.90
7814;DHT22;3952;48.364;16.022;2024-01-11T11:12:06;2.00;99.90
7814;DHT22;3952;48.364;16.022;2024-01-11T11:14:36;1.90;99.90
7814;DHT22;3952;48.364;16.022;2024-01-11T11:17:05;1.80;99.90
7814;DHT22;3952;48.364;16.022;2024-01-11T11:19:33;1.70;99.90
7814;DHT22;3952;48.364;16.022;2024-01-11T11:22:03;1.70;99.90
7814;DHT22;3952;48.364;16.022;2024-01-11T11:24:34;1.80;99.90
7814;DHT22;3952;48.364;16.022;2024-01-11T11:27:01;1.90;99.90
7814;DHT22;3952;48.364;16.022;2024-01-11T11:29:29;2.00;99.90
7814;DHT22;3952;48.364;16.022;2024-01-11T11:31:58;2.00;99.90
7814;DHT22;3952;48.364;16.022;2024-01-11T11:34:40;2.00;99.90
7814;DHT22;3952;48.364;16.022;2024-01-11T11:37:09;2.00;99.90
7814;DHT22;3952;48.364;16.022;2024-01-11T11:39:36;2.10;99.90
7814;DHT22;3952;48.364;16.022;2024-01-11T11:42:04;2.10;99.90
7814;DHT22;3952;48.364;16.022;2024-01-11T11:44:32;2.00;99.90
7814;DHT22;3952;48.364;16.022;2024-01-11T11:47:20;2.00;99.90
7814;DHT22;3952;48.364;16.022;2024-01-11T11:50:02;2.00;99.90
7814;DHT22;3952;48.364;16.022;2024-01-11T11:52:31;1.90;99.90
7814;DHT22;3952;48.364;16.022;2024-01-11T11:54:59;1.90;99.90
7814;DHT22;3952;48.364;16.022;2024-01-11T11:57:28;1.80;99.90
7814;DHT22;3952;48.364;16.022;2024-01-11T11:59:57;1.90;99.90
7814;DHT22;3952;48.364;16.022;2024-01-11T12:02:27;1.90;99.90
7814;DHT22;3952;48.364;16.022;2024-01-11T12:04:55;1.90;99.90
7814;DHT22;3952;48.364;16.022;2024-01-11T12:07:22;2.00;99.90
7814;DHT22;3952;48.364;16.022;2024-01-11T12:09:51;1.90;99.90
7814;DHT22;3952;48.364;16.022;2024-01-11T12:12:18;2.00;99.90
7814;DHT22;3952;48.364;16.022;2024-01-11T12:14:47;2.10;99.90
7814;DHT22;3952;48.364;16.022;2024-01-11T12:17:14;2.20;99.90
7814;DHT22;3952;48.364;16.022;2024-01-11T12:19:43;2.20;99.90
7814;DHT22;3952;48.364;16.022;2024-01-11T12:22:11;2.20;99.90
7814;DHT22;3952;48.364;16.022;2024-01-11T12:24:38;2.20;99.90
7814;DHT22;3952;48.364;16.022;2024-01-11T12:27:05;2.10;99.90
7814;DHT22;3952;48.364;16.022;2024-01-11T12:29:33;2.10;99.90
7814;DHT22;3952;48.364;16.022;2024-01-11T12:32:00;2.20;99.90
7814;DHT22;3952;48.364;16.022;2024-01-11T12:34:28;2.10;99.90
7814;DHT22;3952;48.364;16.022;2024-01-11T12:36:57;2.10;99.90
7814;DHT22;3952;48.364;16.022;2024-01-11T12:39:26;2.10;99.90
7814;DHT22;3952;48.364;16.022;2024-01-11T12:41:54;2.10;99.90
7814;DHT22;3952;48.364;16.022;2024-01-11T12:44:23;2.10;99.90
7814;DHT22;3952;48.364;16.022;2024-01-11T12:46:51;2.10;99.90
7814;DHT22;3952;48.364;16.022;2024-01-11T12:49:18;2.10;99.90
7814;DHT22;3952;48.364;16.022;2024-01-11T12:51:46;2.20;99.90
7814;DHT22;3952;48.364;16.022;2024-01-11T12:54:14;2.10;99.90
7814;DHT22;3952;48.364;16.022;2024-01-11T12:56:45;1.90;99.90
7814;DHT22;3952;48.364;16.022;2024-01-11T12:59:12;1.80;99.90
7814;DHT22;3952;48.364;16.022;2024-01-11T13:01:42;1.80;99.90
7814;DHT22;3952;48.364;16.022;2024-01-11T13:04:10;1.90;99.90
7814;DHT22;3952;48.364;16.022;2024-01-11T13:06:38;2.00;99.90
7814;DHT22;3952;48.364;16.022;2024-01-11T13:09:05;2.00;99.90
7814;DHT22;3952;48.364;16.022;2024-01-11T13:11:35;2.00;99.90
7814;DHT22;3952;48.364;16.022;2024-01-11T13:14:02;1.90;99.90
7814;DHT22;3952;48.364;16.022;2024-01-11T13:16:34;1.80;99.90
7814;DHT22;3952;48.364;16.022;2024-01-11T13:19:01;1.80;99.90
7814;DHT22;3952;48.364;16.022;2024-01-11T13:21:29;1.80;99.90
7814;DHT22;3952;48.364;16.022;2024-01-11T13:23:56;1.80;99.90
7814;DHT22;3952;48.364;16.022;2024-01-11T13:26:23;1.70;99.90
7814;DHT22;3952;48.364;16.022;2024-01-11T13:28:52;1.60;99.90
7814;DHT22;3952;48.364;16.022;2024-01-11T13:31:20;1.60;99.90
7814;DHT22;3952;48.364;16.022;2024-01-11T13:33:47;1.60;99.90
7814;DHT22;3952;48.364;16.022;2024-01-11T13:36:14;1.60;99.90
7814;DHT22;3952;48.364;16.022;2024-01-11T13:38:42;1.50;99.90
7814;DHT22;3952;48.364;16.022;2024-01-11T13:41:09;1.40;99.90
7814;DHT22;3952;48.364;16.022;2024-01-11T13:43:36;1.40;99.90
7814;DHT22;3952;48.364;16.022;2024-01-11T13:46:05;1.40;99.90
7814;DHT22;3952;48.364;16.022;2024-01-11T13:48:33;1.40;99.90
7814;DHT22;3952;48.364;16.022;2024-01-11T13:51:01;1.40;99.90
7814;DHT22;3952;48.364;16.022;2024-01-11T13:53:29;1.40;99.90
7814;DHT22;3952;48.364;16.022;2024-01-11T13:55:57;1.30;99.90
7814;DHT22;3952;48.364;16.022;2024-01-11T13:58:24;1.30;99.90
7814;DHT22;3952;48.364;16.022;2024-01-11T14:00:51;1.30;99.90
7814;DHT22;3952;48.364;16.022;2024-01-11T14:03:20;1.30;99.90
7814;DHT22;3952;48.364;16.022;2024-01-11T14:05:47;1.20;99.90
7814;DHT22;3952;48.364;16.022;2024-01-11T14:08:15;1.20;99.90
7814;DHT22;3952;48.364;16.022;2024-01-11T14:10:42;1.20;99.90
7814;DHT22;3952;48.364;16.022;2024-01-11T14:13:09;1.30;99.90
7814;DHT22;3952;48.364;16.022;2024-01-11T14:15:37;1.30;99.90
7814;DHT22;3952;48.364;16.022;2024-01-11T14:18:06;1.30;99.90
7814;DHT22;3952;48.364;16.022;2024-01-11T14:20:35;1.20;99.90
7814;DHT22;3952;48.364;16.022;2024-01-11T14:23:02;1.20;99.90
7814;DHT22;3952;48.364;16.022;2024-01-11T14:25:30;1.20;99.90
7814;DHT22;3952;48.364;16.022;2024-01-11T14:27:57;1.20;99.90
7814;DHT22;3952;48.364;16.022;2024-01-11T14:30:25;1.10;99.90
7814;DHT22;3952;48.364;16.022;2024-01-11T14:32:53;1.10;99.90
7814;DHT22;3952;48.364;16.022;2024-01-11T14:35:20;0.20;99.90
7814;DHT22;3952;48.364;16.022;2024-01-11T14:37:49;1.00;99.90
7814;DHT22;3952;48.364;16.022;2024-01-11T14:40:18;0.90;99.90
7814;DHT22;3952;48.364;16.022;2024-01-11T14:42:45;0.90;99.90
7814;DHT22;3952;48.364;16.022;2024-01-11T14:45:13;0.80;99.90
7814;DHT22;3952;48.364;16.022;2024-01-11T14:47:40;0.80;99.90
7814;DHT22;3952;48.364;16.022;2024-01-11T14:50:08;0.70;99.90
7814;DHT22;3952;48.364;16.022;2024-01-11T14:52:37;0.70;99.90
7814;DHT22;3952;48.364;16.022;2024-01-11T14:55:07;1.10;99.90
7814;DHT22;3952;48.364;16.022;2024-01-11T14:57:35;0.50;99.90
7814;DHT22;3952;48.364;16.022;2024-01-11T15:00:03;0.50;99.90
7814;DHT22;3952;48.364;16.022;2024-01-11T15:02:33;0.50;99.90
7814;DHT22;3952;48.364;16.022;2024-01-11T15:05:00;0.40;99.90
7814;DHT22;3952;48.364;16.022;2024-01-11T15:07:27;1.10;99.90
7814;DHT22;3952;48.364;16.022;2024-01-11T15:09:55;0.40;99.90
7814;DHT22;3952;48.364;16.022;2024-01-11T15:12:24;0.30;99.90
7814;DHT22;3952;48.364;16.022;2024-01-11T15:14:51;0.30;99.90
7814;DHT22;3952;48.364;16.022;2024-01-11T15:17:18;0.30;99.90
7814;DHT22;3952;48.364;16.022;2024-01-11T15:19:46;0.20;99.90
7814;DHT22;3952;48.364;16.022;2024-01-11T15:22:13;0.20;99.90
7814;DHT22;3952;48.364;16.022;2024-01-11T15:24:41;0.20;99.90
7814;DHT22;3952;48.364;16.022;2024-01-11T15:27:09;0.20;99.90
7814;DHT22;3952;48.364;16.022;2024-01-11T15:29:38;0.10;99.90
7814;DHT22;3952;48.364;16.022;2024-01-11T15:32:06;0.10;99.90
7814;DHT22;3952;48.364;16.022;2024-01-11T15:34:36;1.70;99.90
7814;DHT22;3952;48.364;16.022;2024-01-11T15:37:03;0.10;99.90
7814;DHT22;3952;48.364;16.022;2024-01-11T15:39:30;0.10;99.90
7814;DHT22;3952;48.364;16.022;2024-01-11T15:41:58;0.10;99.90
7814;DHT22;3952;48.364;16.022;2024-01-11T15:44:26;1.60;99.90
7814;DHT22;3952;48.364;16.022;2024-01-11T15:46:55;0.00;99.90
7814;DHT22;3952;48.364;16.022;2024-01-11T15:49:23;0.00;99.90
7814;DHT22;3952;48.364;16.022;2024-01-11T15:51:50;0.00;99.90
7814;DHT22;3952;48.364;16.022;2024-01-11T15:54:17;0.00;99.90
7814;DHT22;3952;48.364;16.022;2024-01-11T15:56:46;-0.10;99.90
7814;DHT22;3952;48.364;16.022;2024-01-11T15:59:13;-0.10;99.90